createdAt,value
2023-02-16T00:01:52.902Z,0.10
2023-02-16T00:04:22.336Z,0.10
2023-02-16T00:06:49.715Z,0.00
2023-02-16T00:09:17.519Z,0.10
2023-02-16T00:12:03.698Z,0.00
2023-02-16T00:14:30.519Z,0.10
2023-02-16T00:16:59.311Z,0.00
2023-02-16T00:19:27.691Z,0.00
2023-02-16T00:21:57.305Z,0.00
2023-02-16T00:24:26.586Z,-0.10
2023-02-16T00:26:53.718Z,-0.10
2023-02-16T00:29:25.805Z,-0.10
2023-02-16T00:31:54.290Z,-0.10
2023-02-16T00:34:28.537Z,-0.10
2023-02-16T00:36:57.129Z,-0.10
2023-02-16T00:39:25.195Z,-0.10
2023-02-16T00:42:07.477Z,-0.10
2023-02-16T00:44:37.525Z,-0.10
2023-02-16T00:47:20.702Z,-0.10
2023-02-16T00:49:49.160Z,-0.10
2023-02-16T00:52:33.370Z,-0.10
2023-02-16T00:55:02.035Z,-0.20
2023-02-16T00:57:32.688Z,-0.10
2023-02-16T01:00:06.469Z,-0.20
2023-02-16T01:02:33.459Z,-0.20
2023-02-16T01:05:00.172Z,-0.30
2023-02-16T01:07:45.610Z,-0.20
2023-02-16T01:10:31.037Z,-0.30
2023-02-16T01:12:58.251Z,-0.30
2023-02-16T01:15:26.298Z,-0.30
2023-02-16T01:17:53.193Z,-0.30
2023-02-16T01:20:22.500Z,-0.30
2023-02-16T01:22:49.241Z,-0.20
2023-02-16T01:25:16.030Z,-0.30
2023-02-16T01:27:42.838Z,-0.40
2023-02-16T01:30:25.462Z,-0.40
2023-02-16T01:32:52.708Z,-0.40
2023-02-16T01:35:24.598Z,-0.40
2023-02-16T01:37:51.436Z,-0.40
2023-02-16T01:40:35.971Z,-0.40
2023-02-16T01:43:18.894Z,-0.30
2023-02-16T01:45:51.338Z,-0.40
2023-02-16T01:48:30.235Z,-0.40
2023-02-16T01:51:12.261Z,-0.40
2023-02-16T01:53:48.656Z,-0.40
2023-02-16T01:56:18.311Z,-0.50
2023-02-16T01:59:00.580Z,-0.50
2023-02-16T02:01:55.142Z,-0.40
2023-02-16T02:05:01.535Z,-0.40
2023-02-16T02:07:37.296Z,-0.50
2023-02-16T02:10:42.401Z,-0.40
2023-02-16T02:13:27.996Z,-0.40
2023-02-16T02:15:56.815Z,-0.40
2023-02-16T02:18:23.616Z,-0.50
2023-02-16T02:21:09.136Z,-0.50
2023-02-16T02:23:54.411Z,-0.50
2023-02-16T02:26:43.462Z,-0.50
2023-02-16T02:29:27.379Z,-0.50
2023-02-16T02:31:57.203Z,-0.50
2023-02-16T02:34:39.122Z,-0.60
2023-02-16T02:37:26.582Z,-0.60
2023-02-16T02:39:58.844Z,-0.60
2023-02-16T02:42:37.597Z,-0.60
2023-02-16T02:45:09.613Z,-0.60
2023-02-16T02:47:45.221Z,-0.60
2023-02-16T02:51:08.075Z,-0.60
2023-02-16T02:53:39.818Z,-0.60
2023-02-16T02:56:26.741Z,-0.70
2023-02-16T02:59:17.744Z,-0.60
2023-02-16T03:01:51.980Z,-0.70
2023-02-16T03:04:23.874Z,-0.70
2023-02-16T03:06:53.761Z,-0.70
2023-02-16T03:09:21.035Z,-0.70
2023-02-16T03:12:08.605Z,-0.70
2023-02-16T03:14:36.688Z,-0.70
2023-02-16T03:17:29.949Z,-0.70
2023-02-16T03:20:16.757Z,-0.70
2023-02-16T03:23:02.965Z,-0.70
2023-02-16T03:25:51.629Z,-0.70
2023-02-16T03:28:40.659Z,-0.70
2023-02-16T03:31:10.660Z,-0.70
2023-02-16T03:33:38.606Z,-0.80
2023-02-16T03:36:05.853Z,-0.70
2023-02-16T03:38:32.920Z,-0.80
2023-02-16T03:40:59.847Z,-0.70
2023-02-16T03:43:28.785Z,-0.70
2023-02-16T03:45:55.776Z,-0.70
2023-02-16T03:48:22.626Z,-0.70
2023-02-16T03:50:49.563Z,-0.70
2023-02-16T03:53:18.234Z,-0.70
2023-02-16T03:55:48.084Z,-0.90
2023-02-16T03:58:18.506Z,-0.80
2023-02-16T04:00:45.619Z,-0.70
2023-02-16T04:03:12.938Z,-0.70
2023-02-16T04:05:39.904Z,-0.70
2023-02-16T04:08:07.579Z,-0.70
2023-02-16T04:10:34.691Z,-0.70
2023-02-16T04:13:01.604Z,-0.70
2023-02-16T04:15:29.497Z,-0.70
2023-02-16T04:17:56.229Z,-0.70
2023-02-16T04:20:26.695Z,-0.70
2023-02-16T04:22:53.673Z,-0.60
2023-02-16T04:25:21.396Z,-0.70
2023-02-16T04:27:48.940Z,-0.60
2023-02-16T04:30:19.321Z,-0.70
2023-02-16T04:32:46.325Z,-0.60
2023-02-16T04:35:13.373Z,-0.60
2023-02-16T04:37:40.170Z,-0.60
2023-02-16T04:40:08.677Z,-0.70
2023-02-16T04:42:35.423Z,-0.70
2023-02-16T04:45:02.107Z,-0.70
2023-02-16T04:47:28.912Z,-0.70
2023-02-16T04:49:55.689Z,-0.70
2023-02-16T04:52:22.478Z,-0.70
2023-02-16T04:54:49.218Z,-0.70
2023-02-16T04:57:17.284Z,-0.50
2023-02-16T04:59:43.977Z,-0.80
2023-02-16T05:02:10.776Z,-0.80
2023-02-16T05:04:38.896Z,-0.80
2023-02-16T05:07:05.738Z,-0.80
2023-02-16T05:09:32.438Z,-0.80
2023-02-16T05:12:17.550Z,-0.80
2023-02-16T05:14:47.291Z,-0.80
2023-02-16T05:17:17.566Z,-0.90
2023-02-16T05:19:46.922Z,-0.90
2023-02-16T05:22:14.833Z,-0.90
2023-02-16T05:24:42.300Z,-0.90
2023-02-16T05:27:13.101Z,-0.90
2023-02-16T05:29:39.848Z,-0.90
2023-02-16T05:32:06.824Z,-0.90
2023-02-16T05:34:33.711Z,-0.90
2023-02-16T05:37:00.429Z,-0.90
2023-02-16T05:39:27.271Z,-1.00
2023-02-16T05:41:54.083Z,-1.00
2023-02-16T05:44:21.877Z,-0.90
2023-02-16T05:46:48.706Z,-0.90
2023-02-16T05:49:16.352Z,-0.90
2023-02-16T05:51:43.601Z,-1.00
2023-02-16T05:54:10.905Z,-1.00
2023-02-16T05:56:37.682Z,-1.00
2023-02-16T05:59:04.486Z,-0.90
2023-02-16T06:01:31.172Z,-1.00
2023-02-16T06:03:57.957Z,-1.00
2023-02-16T06:06:24.681Z,-1.00
2023-02-16T06:08:51.424Z,-1.00
2023-02-16T06:11:36.487Z,-1.10
2023-02-16T06:14:10.634Z,-1.20
2023-02-16T06:16:39.125Z,-1.10
2023-02-16T06:19:06.290Z,-1.20
2023-02-16T06:21:33.649Z,-1.20
2023-02-16T06:24:00.770Z,-1.20
2023-02-16T06:26:27.854Z,-1.20
2023-02-16T06:28:56.767Z,-1.20
2023-02-16T06:31:25.151Z,-1.30
2023-02-16T06:33:52.789Z,-1.30
2023-02-16T06:36:19.622Z,-1.30
2023-02-16T06:38:46.398Z,-1.30
2023-02-16T06:41:13.363Z,-1.30
2023-02-16T06:43:40.180Z,-1.20
2023-02-16T06:46:07.029Z,-1.20
2023-02-16T06:48:33.957Z,-1.10
2023-02-16T06:51:00.677Z,-1.10
2023-02-16T06:53:27.500Z,-1.10
2023-02-16T06:55:54.219Z,-1.10
2023-02-16T06:58:20.996Z,-1.10
2023-02-16T07:00:48.212Z,-1.10
2023-02-16T07:03:15.055Z,-1.10
2023-02-16T07:05:44.018Z,-1.10
2023-02-16T07:08:10.703Z,-1.10
2023-02-16T07:10:49.025Z,-1.10
2023-02-16T07:13:16.529Z,-1.10
2023-02-16T07:15:43.218Z,-1.00
2023-02-16T07:18:12.312Z,-1.00
2023-02-16T07:20:39.197Z,-1.00
2023-02-16T07:23:06.708Z,-0.90
2023-02-16T07:25:35.972Z,-0.90
2023-02-16T07:28:03.442Z,-0.90
2023-02-16T07:30:30.201Z,-1.00
2023-02-16T07:32:59.898Z,-1.00
2023-02-16T07:35:26.938Z,-1.00
2023-02-16T07:37:53.990Z,-0.90
2023-02-16T07:40:20.788Z,-0.90
2023-02-16T07:42:47.469Z,-1.00
2023-02-16T07:45:14.274Z,-1.00
2023-02-16T07:47:40.997Z,-0.90
2023-02-16T07:50:08.580Z,-0.90
2023-02-16T07:52:35.475Z,-0.80
2023-02-16T07:55:02.327Z,-0.70
2023-02-16T07:57:29.324Z,-0.60
2023-02-16T07:59:56.629Z,-0.50
2023-02-16T08:02:24.061Z,-0.50
2023-02-16T08:04:52.840Z,-0.50
2023-02-16T08:07:20.500Z,-0.40
2023-02-16T08:09:47.685Z,-0.40
2023-02-16T08:12:15.625Z,-0.40
2023-02-16T08:14:43.258Z,-0.30
2023-02-16T08:17:10.349Z,-0.30
2023-02-16T08:19:37.412Z,-0.20
2023-02-16T08:22:05.293Z,-0.20
2023-02-16T08:24:34.046Z,-0.30
2023-02-16T08:27:03.859Z,-0.30
2023-02-16T08:29:31.729Z,-0.20
2023-02-16T08:31:58.693Z,-0.10
2023-02-16T08:34:26.409Z,0.00
2023-02-16T08:36:56.587Z,0.00
2023-02-16T08:39:28.910Z,0.10
2023-02-16T08:41:55.934Z,0.10
2023-02-16T08:44:25.133Z,0.20
2023-02-16T08:46:55.216Z,0.30
2023-02-16T08:49:24.015Z,0.30
2023-02-16T08:51:54.786Z,0.40
2023-02-16T08:54:27.084Z,0.40
2023-02-16T08:56:55.567Z,0.50
2023-02-16T08:59:26.556Z,0.50
2023-02-16T09:01:54.744Z,0.50
2023-02-16T09:04:21.598Z,0.60
2023-02-16T09:06:49.017Z,0.70
2023-02-16T09:09:16.770Z,0.80
2023-02-16T09:11:43.577Z,0.90
2023-02-16T09:14:11.032Z,1.00
2023-02-16T09:16:39.782Z,1.00
2023-02-16T09:19:07.133Z,1.10
2023-02-16T09:21:34.277Z,1.30
2023-02-16T09:24:03.600Z,1.30
2023-02-16T09:26:38.467Z,1.30
2023-02-16T09:29:07.047Z,1.30
2023-02-16T09:31:37.402Z,1.40
2023-02-16T09:34:20.186Z,1.40
2023-02-16T09:36:47.526Z,1.40
2023-02-16T09:39:14.773Z,1.30
2023-02-16T09:41:41.451Z,1.40
2023-02-16T09:44:29.916Z,1.30
2023-02-16T09:46:58.775Z,1.20
2023-02-16T09:49:35.154Z,1.30
2023-02-16T09:52:20.914Z,1.20
2023-02-16T09:54:57.686Z,1.20
2023-02-16T09:57:46.657Z,1.10
2023-02-16T10:00:49.571Z,1.20
2023-02-16T10:03:42.956Z,1.30
2023-02-16T10:06:51.834Z,1.40
2023-02-16T10:09:20.503Z,1.40
2023-02-16T10:11:51.233Z,1.50
2023-02-16T10:14:41.531Z,1.60
2023-02-16T10:17:31.675Z,1.60
2023-02-16T10:20:23.440Z,1.70
2023-02-16T10:23:26.906Z,1.90
2023-02-16T10:25:59.824Z,2.10
2023-02-16T10:28:40.906Z,2.30
2023-02-16T10:31:21.019Z,2.40
2023-02-16T10:34:10.556Z,2.50
2023-02-16T10:37:16.999Z,2.60
2023-02-16T10:39:51.987Z,2.70
2023-02-16T10:42:51.597Z,2.90
2023-02-16T10:45:37.487Z,3.00
2023-02-16T10:48:04.491Z,3.20
2023-02-16T10:50:49.032Z,3.20
2023-02-16T10:53:35.266Z,3.10
2023-02-16T10:56:02.141Z,3.10
2023-02-16T10:58:38.709Z,3.00
2023-02-16T11:01:16.582Z,3.10
2023-02-16T11:03:49.212Z,3.10
2023-02-16T11:06:25.882Z,2.90
2023-02-16T11:08:57.188Z,2.90
2023-02-16T11:11:39.148Z,2.90
2023-02-16T11:14:09.300Z,3.00
2023-02-16T11:16:36.125Z,3.10
2023-02-16T11:19:24.720Z,3.20
2023-02-16T11:21:56.436Z,3.20
2023-02-16T11:24:32.057Z,3.20
2023-02-16T11:27:13.823Z,3.40
2023-02-16T11:29:41.633Z,3.60
2023-02-16T11:32:10.744Z,3.70
2023-02-16T11:34:44.890Z,3.90
2023-02-16T11:37:33.826Z,4.00
2023-02-16T11:40:18.364Z,4.20
2023-02-16T11:42:51.175Z,4.50
2023-02-16T11:45:36.836Z,4.70
2023-02-16T11:48:08.020Z,4.90
2023-02-16T11:50:38.609Z,5.00
2023-02-16T11:53:14.829Z,5.00
2023-02-16T11:55:48.059Z,5.00
2023-02-16T11:58:19.568Z,5.10
2023-02-16T12:01:05.210Z,5.40
2023-02-16T12:03:53.324Z,5.70
2023-02-16T12:06:34.927Z,6.00
2023-02-16T12:09:07.454Z,6.70
2023-02-16T12:11:50.165Z,7.10
2023-02-16T12:14:41.907Z,7.70
2023-02-16T12:17:17.703Z,8.40
2023-02-16T12:19:47.565Z,9.30
2023-02-16T12:22:37.132Z,10.40
2023-02-16T12:25:26.382Z,10.80
2023-02-16T12:28:20.216Z,10.90
2023-02-16T12:30:55.572Z,11.10
2023-02-16T12:34:01.128Z,10.90
2023-02-16T12:36:47.660Z,11.10
2023-02-16T12:39:22.185Z,11.10
2023-02-16T12:41:51.662Z,10.80
2023-02-16T12:44:31.921Z,10.30
2023-02-16T12:47:05.328Z,10.10
2023-02-16T12:49:43.877Z,9.70
2023-02-16T12:52:15.893Z,9.80
2023-02-16T12:54:51.656Z,9.60
2023-02-16T12:57:23.088Z,9.40
2023-02-16T13:00:10.109Z,9.20
2023-02-16T13:02:42.562Z,9.20
2023-02-16T13:05:18.112Z,9.00
2023-02-16T13:07:52.448Z,9.20
2023-02-16T13:10:33.422Z,9.20
2023-02-16T13:13:10.616Z,9.10
2023-02-16T13:15:42.881Z,9.20
2023-02-16T13:18:23.925Z,9.20
2023-02-16T13:21:08.187Z,9.20
2023-02-16T13:23:56.320Z,8.90
2023-02-16T13:26:42.597Z,8.80
2023-02-16T13:29:25.116Z,8.90
2023-02-16T13:35:04.751Z,8.30
2023-02-16T13:37:46.574Z,8.10
2023-02-16T13:40:35.319Z,8.10
2023-02-16T13:43:14.505Z,8.10
2023-02-16T13:45:45.624Z,8.20
2023-02-16T13:48:36.825Z,8.20
2023-02-16T13:51:15.471Z,8.20
2023-02-16T13:53:49.756Z,8.20
2023-02-16T13:56:31.996Z,8.20
2023-02-16T13:59:20.042Z,8.20
2023-02-16T14:01:51.303Z,8.30
2023-02-16T14:04:23.913Z,8.20
2023-02-16T14:07:14.867Z,8.30
2023-02-16T14:09:41.536Z,8.40
2023-02-16T14:12:28.936Z,8.50
2023-02-16T14:15:00.297Z,8.60
2023-02-16T14:17:31.129Z,8.60
2023-02-16T14:20:11.828Z,8.50
2023-02-16T14:22:47.722Z,8.60
2023-02-16T14:25:21.140Z,8.70
2023-02-16T14:27:59.076Z,8.90
2023-02-16T14:30:36.318Z,9.00
2023-02-16T14:33:12.137Z,9.00
2023-02-16T14:35:42.532Z,9.00
2023-02-16T14:38:26.879Z,8.90
2023-02-16T14:40:55.510Z,8.90
2023-02-16T14:43:28.330Z,8.80
2023-02-16T14:46:37.943Z,8.70
2023-02-16T14:49:07.736Z,8.60
2023-02-16T14:52:11.889Z,8.30
2023-02-16T14:55:15.523Z,8.20
2023-02-16T14:58:08.654Z,8.10
2023-02-16T15:01:04.810Z,8.00
2023-02-16T15:03:46.908Z,7.90
2023-02-16T15:06:32.283Z,7.90
2023-02-16T15:09:06.501Z,7.80
2023-02-16T15:11:57.080Z,7.70
2023-02-16T15:14:25.927Z,7.60
2023-02-16T15:16:53.345Z,7.50
2023-02-16T15:19:28.527Z,7.50
2023-02-16T15:22:18.462Z,7.40
2023-02-16T15:24:58.818Z,7.50
2023-02-16T15:27:26.058Z,7.50
2023-02-16T15:30:24.448Z,7.50
2023-02-16T15:32:54.583Z,7.50
2023-02-16T15:35:26.851Z,7.40
2023-02-16T15:38:01.818Z,7.30
2023-02-16T15:40:31.723Z,7.20
2023-02-16T15:43:09.994Z,7.10
2023-02-16T15:45:40.939Z,7.00
2023-02-16T15:48:16.103Z,6.90
2023-02-16T15:50:43.642Z,6.80
2023-02-16T15:53:14.917Z,6.70
2023-02-16T15:55:44.580Z,6.60
2023-02-16T15:58:14.778Z,6.60
2023-02-16T16:00:45.147Z,6.50
2023-02-16T16:03:18.922Z,6.50
2023-02-16T16:06:01.959Z,6.10
2023-02-16T16:08:30.555Z,6.30
2023-02-16T16:10:58.266Z,6.20
2023-02-16T16:13:28.641Z,6.10
2023-02-16T16:16:01.625Z,6.00
2023-02-16T16:18:37.597Z,5.90
2023-02-16T16:21:36.883Z,5.80
2023-02-16T16:24:08.890Z,5.70
2023-02-16T16:26:57.922Z,5.60
2023-02-16T16:29:32.114Z,5.50
2023-02-16T16:31:59.044Z,5.40
2023-02-16T16:34:52.472Z,5.30
2023-02-16T16:37:33.491Z,5.30
2023-02-16T16:40:20.644Z,5.20
2023-02-16T16:43:17.664Z,5.10
2023-02-16T16:45:52.039Z,5.00
2023-02-16T16:48:26.640Z,5.00
2023-02-16T16:51:21.034Z,4.90
2023-02-16T16:53:50.924Z,4.90
2023-02-16T16:56:18.783Z,4.90
2023-02-16T16:58:51.333Z,4.90
2023-02-16T17:01:19.742Z,4.80
2023-02-16T17:03:47.163Z,4.80
2023-02-16T17:06:17.682Z,4.80
2023-02-16T17:08:45.303Z,4.80
2023-02-16T17:11:20.919Z,4.80
2023-02-16T17:13:47.695Z,4.80
2023-02-16T17:16:20.696Z,4.70
2023-02-16T17:18:47.442Z,4.70
2023-02-16T17:21:15.107Z,4.60
2023-02-16T17:23:52.256Z,4.60
2023-02-16T17:26:19.516Z,4.60
2023-02-16T17:28:46.181Z,4.60
2023-02-16T17:31:12.988Z,4.60
2023-02-16T17:33:39.683Z,4.60
2023-02-16T17:36:08.243Z,4.60
2023-02-16T17:38:35.044Z,4.60
2023-02-16T17:41:01.768Z,4.60
2023-02-16T17:43:28.618Z,4.60
2023-02-16T17:45:57.119Z,4.60
2023-02-16T17:48:28.334Z,4.60
2023-02-16T17:50:55.778Z,4.60
2023-02-16T17:53:25.281Z,4.60
2023-02-16T17:55:54.718Z,4.60
2023-02-16T17:58:23.043Z,4.60
2023-02-16T18:00:49.834Z,4.60
2023-02-16T18:03:18.051Z,4.50
2023-02-16T18:05:45.069Z,4.50
2023-02-16T18:08:13.208Z,4.50
2023-02-16T18:10:47.250Z,4.50
2023-02-16T18:13:14.956Z,4.50
2023-02-16T18:15:47.790Z,4.40
2023-02-16T18:18:18.933Z,4.40
2023-02-16T18:20:46.174Z,4.40
2023-02-16T18:23:13.252Z,4.40
2023-02-16T18:25:41.455Z,4.40
2023-02-16T18:28:09.240Z,4.40
2023-02-16T18:30:35.978Z,4.30
2023-02-16T18:33:02.683Z,4.40
2023-02-16T18:35:31.859Z,4.30
2023-02-16T18:37:58.920Z,4.30
2023-02-16T18:40:25.739Z,4.30
2023-02-16T18:42:52.728Z,4.30
2023-02-16T18:45:19.490Z,4.30
2023-02-16T18:47:46.265Z,4.30
2023-02-16T18:50:13.536Z,4.30
2023-02-16T18:52:42.648Z,4.30
2023-02-16T18:55:10.371Z,4.40
2023-02-16T18:57:37.482Z,4.30
2023-02-16T19:00:08.752Z,4.30
2023-02-16T19:02:35.837Z,4.30
2023-02-16T19:05:03.029Z,4.30
2023-02-16T19:07:31.850Z,4.30
2023-02-16T19:09:58.657Z,4.30
2023-02-16T19:12:26.097Z,4.30
2023-02-16T19:14:52.790Z,4.30
2023-02-16T19:17:19.553Z,4.30
2023-02-16T19:19:46.857Z,4.30
2023-02-16T19:22:13.903Z,4.30
2023-02-16T19:24:40.646Z,4.30
2023-02-16T19:27:07.453Z,4.30
2023-02-16T19:29:34.290Z,4.30
2023-02-16T19:32:01.146Z,4.30
2023-02-16T19:34:27.993Z,4.30
2023-02-16T19:36:54.757Z,4.30
2023-02-16T19:39:21.493Z,4.30
2023-02-16T19:41:48.259Z,4.20
2023-02-16T19:44:17.300Z,4.30
2023-02-16T19:46:44.023Z,4.30
2023-02-16T19:49:13.504Z,4.30
2023-02-16T19:51:40.490Z,4.30
2023-02-16T19:54:07.216Z,4.30
2023-02-16T19:56:36.292Z,4.30
2023-02-16T19:59:03.058Z,4.30
2023-02-16T20:01:29.919Z,4.30
2023-02-16T20:03:57.920Z,4.30
2023-02-16T20:06:27.789Z,4.30
2023-02-16T20:08:55.982Z,4.30
2023-02-16T20:11:25.512Z,4.30
2023-02-16T20:13:53.238Z,4.80
2023-02-16T20:16:21.124Z,4.30
2023-02-16T20:18:48.671Z,4.30
2023-02-16T20:21:18.658Z,4.30
2023-02-16T20:23:46.110Z,4.30
2023-02-16T20:26:18.918Z,4.30
2023-02-16T20:28:46.313Z,4.30
2023-02-16T20:31:17.114Z,4.30
2023-02-16T20:33:43.928Z,4.20
2023-02-16T20:36:11.785Z,4.20
2023-02-16T20:38:38.664Z,4.20
2023-02-16T20:41:05.806Z,4.20
2023-02-16T20:43:33.382Z,4.20
2023-02-16T20:46:01.958Z,4.20
2023-02-16T20:48:28.745Z,4.20
2023-02-16T20:50:56.940Z,4.20
2023-02-16T20:53:24.077Z,4.20
2023-02-16T20:55:59.673Z,4.20
2023-02-16T20:58:26.435Z,4.20
2023-02-16T21:00:53.147Z,4.20
2023-02-16T21:03:19.914Z,4.20
2023-02-16T21:05:46.750Z,4.20
2023-02-16T21:08:13.620Z,4.10
2023-02-16T21:10:40.436Z,4.10
2023-02-16T21:13:07.145Z,4.10
2023-02-16T21:15:33.828Z,4.10
2023-02-16T21:18:00.531Z,4.10
2023-02-16T21:20:27.239Z,4.10
2023-02-16T21:22:53.988Z,4.00
2023-02-16T21:25:20.660Z,4.00
2023-02-16T21:27:47.592Z,4.00
2023-02-16T21:30:14.790Z,3.90
2023-02-16T21:32:41.570Z,3.90
2023-02-16T21:35:08.412Z,3.90
2023-02-16T21:37:35.860Z,3.90
2023-02-16T21:40:21.500Z,3.90
2023-02-16T21:42:48.228Z,3.80
2023-02-16T21:45:15.072Z,3.80
2023-02-16T21:48:03.486Z,3.80
2023-02-16T21:50:33.736Z,3.80
2023-02-16T21:53:00.526Z,3.80
2023-02-16T21:55:46.506Z,3.80
2023-02-16T21:58:13.221Z,3.80
2023-02-16T22:00:40.868Z,3.80
2023-02-16T22:03:08.744Z,3.80
2023-02-16T22:05:36.253Z,3.70
2023-02-16T22:08:03.111Z,3.80
2023-02-16T22:10:30.155Z,3.70
2023-02-16T22:12:57.439Z,3.70
2023-02-16T22:15:25.929Z,3.80
2023-02-16T22:17:52.797Z,3.80
2023-02-16T22:20:20.000Z,3.80
2023-02-16T22:22:46.809Z,3.80
2023-02-16T22:25:14.797Z,3.80
2023-02-16T22:27:41.689Z,3.80
2023-02-16T22:30:09.179Z,3.70
2023-02-16T22:32:36.030Z,3.60
2023-02-16T22:35:03.213Z,3.50
2023-02-16T22:37:31.562Z,3.40
2023-02-16T22:39:58.246Z,3.40
2023-02-16T22:42:24.970Z,3.30
2023-02-16T22:44:51.675Z,3.30
2023-02-16T22:47:18.679Z,3.30
2023-02-16T22:49:45.495Z,3.30
2023-02-16T22:52:12.214Z,3.40
2023-02-16T22:54:38.947Z,3.40
2023-02-16T22:57:07.188Z,3.40
2023-02-16T22:59:34.113Z,3.50
2023-02-16T23:02:01.017Z,3.50
2023-02-16T23:04:27.845Z,3.50
2023-02-16T23:06:54.567Z,3.60
2023-02-16T23:09:22.200Z,3.60
2023-02-16T23:11:49.684Z,3.60
2023-02-16T23:14:17.034Z,3.60
2023-02-16T23:16:49.340Z,3.70
2023-02-16T23:19:20.267Z,3.60
2023-02-16T23:21:48.172Z,3.70
2023-02-16T23:24:20.457Z,3.70
2023-02-16T23:26:47.734Z,3.70
2023-02-16T23:29:15.392Z,3.80
2023-02-16T23:31:44.633Z,3.80
2023-02-16T23:34:11.679Z,3.80
2023-02-16T23:36:39.077Z,3.80
2023-02-16T23:39:09.492Z,3.80
2023-02-16T23:41:37.136Z,3.80
2023-02-16T23:44:05.120Z,3.80
2023-02-16T23:46:32.000Z,3.90
2023-02-16T23:48:58.963Z,3.80
2023-02-16T23:51:26.056Z,3.90
2023-02-16T23:53:52.840Z,3.90
2023-02-16T23:56:22.458Z,3.90
2023-02-16T23:58:50.324Z,3.90
